This is the latest recevied weather packets stored in our database for station/object M0XDC. If no packets are shown the sender has not sent any weather packets the latest 10 day(s).
| Time | Temp. | Humidity | Pressure | Rain* | Wind** | Luminosity | Snow |
|---|---|---|---|---|---|---|---|
| 1787934705 | 22.78° C | 60% | 1004.1 hPa | 0 mm | - | - | - |
| 1787932905 | 21.67° C | 62% | 1004.1 hPa | 0 mm | - | - | - |
| 1787931105 | 22.22° C | 58% | 1003.9 hPa | 0 mm | - | - | - |
| 1787929305 | 21.67° C | 64% | 1003.6 hPa | 0 mm | - | - | - |
| 1787927505 | 23.33° C | 49% | 1003.4 hPa | 0 mm | - | - | - |
| 1787925705 | 23.33° C | 48% | 1003.5 hPa | 0 mm | - | - | - |
| 1787923905 | 23.33° C | 49% | 1003.8 hPa | 0 mm | - | - | - |
| 1787922105 | 23.33° C | 46% | 1003.6 hPa | 0 mm | - | - | - |
| 1787920305 | 23.33° C | 45% | 1003.7 hPa | 0 mm | - | - | - |
| 1787918505 | 23.33° C | 47% | 1004 hPa | 0 mm | - | - | - |
| 1787916705 | 21.67° C | 60% | 1004.1 hPa | 0 mm | - | - | - |
| 1787915745 | 22.22° C | 58% | 1004.3 hPa | 0 mm | - | - | - |
| 1787914785 | 21.67° C | 61% | 1004.1 hPa | 0 mm | - | - | - |
| 1787913824 | 21.67° C | 61% | 1004.3 hPa | 0 mm | - | - | - |
| 1787912865 | 21.11° C | 63% | 1004.2 hPa | 0 mm | - | - | - |
| 1787912385 | 20° C | 68% | 1004.3 hPa | 0 mm | - | - | - |
| 1787911905 | 20° C | 68% | 1004.4 hPa | 0 mm | - | - | - |
| 1787911425 | 20° C | 67% | 1004.1 hPa | 0 mm | - | - | - |
| 1787910945 | 20° C | 68% | 1004.4 hPa | 0 mm | - | - | - |
| 1787910705 | 20.56° C | 67% | 1004.6 hPa | 0 mm | - | - | - |
| 1787910465 | 20.56° C | 66% | 1004.1 hPa | 0 mm | - | - | - |
| 1787910225 | 21.11° C | 65% | 1004.4 hPa | 0 mm | - | - | - |
| 1787909985 | 21.11° C | 65% | 1004.2 hPa | 0 mm | - | - | - |
| 1787909865 | 21.11° C | 65% | 1004.2 hPa | 0 mm | - | - | - |
| 1787909745 | 21.11° C | 65% | 1004.3 hPa | 0.25 mm | - | - | - |
* Rain latest hour (hover to see other rain measurements)
** Current wind speed in m/s (hover to see current wind gust speed)